createdAt,value
2022-11-06T00:00:15.172Z,1013.32
2022-11-06T00:01:15.150Z,1013.31
2022-11-06T00:02:20.514Z,1013.35
2022-11-06T00:03:15.160Z,1013.28
2022-11-06T00:04:15.262Z,1013.26
2022-11-06T00:05:15.105Z,1013.26
2022-11-06T00:06:15.112Z,1013.25
2022-11-06T00:07:15.074Z,1013.29
2022-11-06T00:08:15.424Z,1013.28
2022-11-06T00:09:15.064Z,1013.26
2022-11-06T00:10:15.051Z,1013.27
2022-11-06T00:11:15.031Z,1013.27
2022-11-06T00:12:15.020Z,1013.26
2022-11-06T00:13:15.053Z,1013.25
2022-11-06T00:14:15.011Z,1013.29
2022-11-06T00:15:15.035Z,1013.28
2022-11-06T00:16:14.977Z,1013.26
2022-11-06T00:17:14.961Z,1013.26
2022-11-06T00:18:15.427Z,1013.20
2022-11-06T00:19:14.935Z,1013.19
2022-11-06T00:20:14.932Z,1013.13
2022-11-06T00:21:14.940Z,1013.19
2022-11-06T00:22:14.918Z,1013.20
2022-11-06T00:23:14.898Z,1013.17
2022-11-06T00:24:14.903Z,1013.22
2022-11-06T00:25:14.870Z,1013.20
2022-11-06T00:26:14.880Z,1013.19
2022-11-06T00:27:14.853Z,1013.20
2022-11-06T00:28:15.220Z,1013.21
2022-11-06T00:29:14.852Z,1013.16
2022-11-06T00:30:14.817Z,1013.15
2022-11-06T00:31:14.804Z,1013.14
2022-11-06T00:32:14.822Z,1013.13
2022-11-06T00:33:14.792Z,1013.15
2022-11-06T00:34:14.785Z,1013.15
2022-11-06T00:35:14.761Z,1013.18
2022-11-06T00:36:14.761Z,1013.18
2022-11-06T00:37:14.759Z,1013.14
2022-11-06T00:38:15.111Z,1013.20
2022-11-06T00:39:14.726Z,1013.11
2022-11-06T00:40:14.792Z,1013.10
2022-11-06T00:41:15.601Z,1013.17
2022-11-06T00:42:14.695Z,1013.10
2022-11-06T00:43:14.704Z,1013.09
2022-11-06T00:44:14.671Z,1013.12
2022-11-06T00:45:14.658Z,1013.12
2022-11-06T00:46:14.651Z,1013.13
2022-11-06T00:47:14.640Z,1013.16
2022-11-06T00:48:15.109Z,1013.20
2022-11-06T00:49:14.631Z,1013.22
2022-11-06T00:50:14.609Z,1013.20
2022-11-06T00:51:14.600Z,1013.19
2022-11-06T00:52:14.583Z,1013.19
2022-11-06T00:53:14.642Z,1013.13
2022-11-06T00:54:14.588Z,1013.20
2022-11-06T00:55:14.556Z,1013.17
2022-11-06T00:56:14.592Z,1013.18
2022-11-06T00:57:14.536Z,1013.22
2022-11-06T00:58:14.875Z,1013.16
2022-11-06T00:59:14.509Z,1013.15
2022-11-06T01:00:14.520Z,1013.16
2022-11-06T01:01:14.636Z,1013.14
2022-11-06T01:02:14.623Z,1013.13
2022-11-06T01:03:14.468Z,1013.13
2022-11-06T01:04:14.459Z,1013.13
2022-11-06T01:05:14.503Z,1013.11
2022-11-06T01:06:14.436Z,1013.10
2022-11-06T01:07:14.423Z,1013.06
2022-11-06T01:08:14.724Z,1013.11
2022-11-06T01:09:14.404Z,1013.12
2022-11-06T01:10:14.431Z,1013.12
2022-11-06T01:11:14.425Z,1013.12
2022-11-06T01:12:14.864Z,1013.12
2022-11-06T01:13:14.355Z,1013.09
2022-11-06T01:14:14.340Z,1013.09
2022-11-06T01:15:14.330Z,1013.10
2022-11-06T01:16:14.318Z,1013.08
2022-11-06T01:17:14.383Z,1013.07
2022-11-06T01:18:14.662Z,1013.10
2022-11-06T01:19:14.292Z,1013.08
2022-11-06T01:20:14.279Z,1013.05
2022-11-06T01:21:14.269Z,1013.04
2022-11-06T01:22:14.256Z,1013.09
2022-11-06T01:23:14.262Z,1013.05
2022-11-06T01:24:14.310Z,1013.04
2022-11-06T01:25:14.221Z,1013.04
2022-11-06T01:26:14.212Z,1013.07
2022-11-06T01:27:29.529Z,1012.95
2022-11-06T01:28:15.465Z,1012.96
2022-11-06T01:29:14.203Z,1012.96
2022-11-06T01:30:14.178Z,1012.95
2022-11-06T01:31:14.154Z,1012.91
2022-11-06T01:32:14.143Z,1012.90
2022-11-06T01:33:14.136Z,1012.90
2022-11-06T01:34:14.142Z,1012.92
2022-11-06T01:35:14.123Z,1012.89
2022-11-06T01:36:14.095Z,1012.83
2022-11-06T01:37:14.936Z,1012.79
2022-11-06T01:38:14.442Z,1012.82
2022-11-06T01:39:14.060Z,1012.87
2022-11-06T01:40:14.086Z,1012.85
2022-11-06T01:41:14.050Z,1012.83
2022-11-06T01:42:14.039Z,1012.80
2022-11-06T01:43:14.045Z,1012.82
2022-11-06T01:44:14.125Z,1012.87
2022-11-06T01:45:14.013Z,1012.82
2022-11-06T01:46:14.021Z,1012.82
2022-11-06T01:47:13.987Z,1012.81
2022-11-06T01:48:14.337Z,1012.84
2022-11-06T01:49:13.964Z,1012.76
2022-11-06T01:50:13.963Z,1012.77
2022-11-06T01:51:13.961Z,1012.71
2022-11-06T01:52:13.948Z,1012.68
2022-11-06T01:53:13.917Z,1012.68
2022-11-06T01:54:13.909Z,1012.69
2022-11-06T01:55:13.893Z,1012.62
2022-11-06T01:56:13.905Z,1012.58
2022-11-06T01:57:13.922Z,1012.61
2022-11-06T01:58:14.265Z,1012.64
2022-11-06T01:59:13.855Z,1012.62
2022-11-06T02:00:13.941Z,1012.60
2022-11-06T02:01:13.850Z,1012.62
2022-11-06T02:02:13.939Z,1012.60
2022-11-06T02:03:13.866Z,1012.65
2022-11-06T02:04:13.800Z,1012.60
2022-11-06T02:05:13.792Z,1012.60
2022-11-06T02:06:13.769Z,1012.57
2022-11-06T02:07:13.768Z,1012.58
2022-11-06T02:08:14.091Z,1012.57
2022-11-06T02:09:13.745Z,1012.60
2022-11-06T02:10:13.732Z,1012.58
2022-11-06T02:11:13.710Z,1012.55
2022-11-06T02:12:13.711Z,1012.55
2022-11-06T02:13:13.702Z,1012.51
2022-11-06T02:14:13.711Z,1012.47
2022-11-06T02:15:13.699Z,1012.50
2022-11-06T02:16:13.680Z,1012.51
2022-11-06T02:17:13.648Z,1012.50
2022-11-06T02:18:13.935Z,1012.52
2022-11-06T02:19:13.649Z,1012.51
2022-11-06T02:20:13.625Z,1012.51
2022-11-06T02:21:13.613Z,1012.48
2022-11-06T02:22:13.602Z,1012.50
2022-11-06T02:23:13.580Z,1012.45
2022-11-06T02:24:13.574Z,1012.47
2022-11-06T02:25:13.589Z,1012.43
2022-11-06T02:26:13.555Z,1012.43
2022-11-06T02:27:13.546Z,1012.42
2022-11-06T02:28:13.827Z,1012.36
2022-11-06T02:29:13.515Z,1012.36
2022-11-06T02:30:13.512Z,1012.37
2022-11-06T02:31:13.513Z,1012.39
2022-11-06T02:32:13.516Z,1012.35
2022-11-06T02:33:13.507Z,1012.36
2022-11-06T02:34:13.468Z,1012.37
2022-11-06T02:35:13.452Z,1012.37
2022-11-06T02:36:13.445Z,1012.30
2022-11-06T02:37:13.445Z,1012.27
2022-11-06T02:38:13.783Z,1012.31
2022-11-06T02:39:13.430Z,1012.31
2022-11-06T02:40:13.403Z,1012.35
2022-11-06T02:41:13.384Z,1012.31
2022-11-06T02:42:13.383Z,1012.31
2022-11-06T02:43:13.369Z,1012.31
2022-11-06T02:44:13.370Z,1012.39
2022-11-06T02:45:13.342Z,1012.41
2022-11-06T02:46:13.325Z,1012.40
2022-11-06T02:47:13.334Z,1012.39
2022-11-06T02:48:13.665Z,1012.37
2022-11-06T02:49:13.319Z,1012.40
2022-11-06T02:50:13.298Z,1012.39
2022-11-06T02:51:13.280Z,1012.42
2022-11-06T02:52:13.265Z,1012.41
2022-11-06T02:53:13.254Z,1012.39
2022-11-06T02:54:13.250Z,1012.35
2022-11-06T02:55:13.258Z,1012.36
2022-11-06T02:56:13.224Z,1012.35
2022-11-06T02:57:13.217Z,1012.27
2022-11-06T02:58:13.512Z,1012.35
2022-11-06T02:59:13.183Z,1012.32
2022-11-06T03:00:13.236Z,1012.29
2022-11-06T03:01:13.163Z,1012.31
2022-11-06T03:02:13.332Z,1012.29
2022-11-06T03:03:13.144Z,1012.29
2022-11-06T03:04:13.149Z,1012.30
2022-11-06T03:05:13.137Z,1012.34
2022-11-06T03:06:13.121Z,1012.33
2022-11-06T03:07:13.118Z,1012.30
2022-11-06T03:08:13.362Z,1012.36
2022-11-06T03:09:13.079Z,1012.34
2022-11-06T03:10:13.081Z,1012.39
2022-11-06T03:11:13.101Z,1012.39
2022-11-06T03:12:13.054Z,1012.35
2022-11-06T03:13:13.032Z,1012.38
2022-11-06T03:14:13.027Z,1012.41
2022-11-06T03:15:13.012Z,1012.40
2022-11-06T03:16:13.017Z,1012.40
2022-11-06T03:17:13.081Z,1012.38
2022-11-06T03:18:13.358Z,1012.36
2022-11-06T03:19:12.977Z,1012.34
2022-11-06T03:20:12.974Z,1012.29
2022-11-06T03:21:12.959Z,1012.29
2022-11-06T03:22:12.948Z,1012.35
2022-11-06T03:23:12.919Z,1012.37
2022-11-06T03:24:12.915Z,1012.29
2022-11-06T03:25:12.911Z,1012.29
2022-11-06T03:26:12.900Z,1012.31
2022-11-06T03:27:12.900Z,1012.30
2022-11-06T03:28:13.124Z,1012.32
2022-11-06T03:29:12.858Z,1012.30
2022-11-06T03:30:16.458Z,1012.31
2022-11-06T03:31:12.843Z,1012.29
2022-11-06T03:32:12.851Z,1012.28
2022-11-06T03:33:12.828Z,1012.28
2022-11-06T03:34:12.811Z,1012.23
2022-11-06T03:35:12.797Z,1012.30
2022-11-06T03:36:12.797Z,1012.27
2022-11-06T03:37:12.784Z,1012.25
2022-11-06T03:38:13.172Z,1012.27
2022-11-06T03:39:12.800Z,1012.27
2022-11-06T03:40:12.750Z,1012.26
2022-11-06T03:41:12.727Z,1012.21
2022-11-06T03:42:12.727Z,1012.27
2022-11-06T03:43:12.708Z,1012.27
2022-11-06T03:44:12.709Z,1012.27
2022-11-06T03:45:12.682Z,1012.29
2022-11-06T03:46:12.685Z,1012.25
2022-11-06T03:47:12.659Z,1012.19
2022-11-06T03:48:12.895Z,1012.22
2022-11-06T03:49:12.661Z,1012.21
2022-11-06T03:50:12.650Z,1012.20
2022-11-06T03:51:12.624Z,1012.17
2022-11-06T03:52:12.623Z,1012.18
2022-11-06T03:53:12.600Z,1012.16
2022-11-06T03:54:12.604Z,1012.14
2022-11-06T03:55:12.601Z,1012.17
2022-11-06T03:56:12.560Z,1012.16
2022-11-06T03:57:12.542Z,1012.11
2022-11-06T03:58:12.913Z,1012.13
2022-11-06T03:59:12.608Z,1012.10
2022-11-06T04:00:12.529Z,1012.09
2022-11-06T04:01:12.514Z,1012.10
2022-11-06T04:02:12.657Z,1012.09
2022-11-06T04:03:12.503Z,1012.11
2022-11-06T04:04:12.463Z,1012.14
2022-11-06T04:05:12.469Z,1012.10
2022-11-06T04:06:12.455Z,1012.07
2022-11-06T04:07:12.444Z,1012.06
2022-11-06T04:08:12.788Z,1012.14
2022-11-06T04:09:12.441Z,1012.10
2022-11-06T04:10:12.446Z,1012.06
2022-11-06T04:11:12.478Z,1012.13
2022-11-06T04:12:12.388Z,1012.08
2022-11-06T04:13:12.383Z,1012.09
2022-11-06T04:14:12.375Z,1012.07
2022-11-06T04:15:12.428Z,1012.07
2022-11-06T04:16:12.361Z,1012.07
2022-11-06T04:17:12.325Z,1012.07
2022-11-06T04:18:12.566Z,1012.05
2022-11-06T04:19:12.314Z,1012.03
2022-11-06T04:20:12.313Z,1011.99
2022-11-06T04:21:12.292Z,1012.01
2022-11-06T04:22:12.265Z,1011.98
2022-11-06T04:23:12.275Z,1011.97
2022-11-06T04:24:12.263Z,1012.00
2022-11-06T04:25:12.247Z,1011.98
2022-11-06T04:26:12.249Z,1011.98
2022-11-06T04:27:12.219Z,1011.95
2022-11-06T04:28:12.604Z,1011.94
2022-11-06T04:29:12.198Z,1011.96
2022-11-06T04:30:12.194Z,1011.94
2022-11-06T04:31:12.208Z,1011.96
2022-11-06T04:32:12.179Z,1011.91
2022-11-06T04:33:12.156Z,1011.94
2022-11-06T04:34:12.140Z,1011.96
2022-11-06T04:35:12.141Z,1011.92
2022-11-06T04:36:12.121Z,1011.96
2022-11-06T04:37:12.117Z,1011.97
2022-11-06T04:38:12.500Z,1011.99
2022-11-06T04:39:12.097Z,1012.04
2022-11-06T04:40:12.093Z,1012.01
2022-11-06T04:41:12.086Z,1012.03
2022-11-06T04:42:12.084Z,1012.07
2022-11-06T04:43:12.054Z,1012.05
2022-11-06T04:44:12.045Z,1012.02
2022-11-06T04:45:12.029Z,1012.05
2022-11-06T04:46:12.019Z,1012.06
2022-11-06T04:47:12.000Z,1012.03
2022-11-06T04:48:12.473Z,1012.02
2022-11-06T04:49:11.991Z,1012.02
2022-11-06T04:50:11.979Z,1012.00
2022-11-06T04:51:11.967Z,1011.98
2022-11-06T04:52:11.966Z,1011.99
2022-11-06T04:53:11.944Z,1011.97
2022-11-06T04:54:11.941Z,1012.03
2022-11-06T04:55:11.934Z,1011.99
2022-11-06T04:56:11.939Z,1011.94
2022-11-06T04:57:11.898Z,1011.94
2022-11-06T04:58:12.169Z,1011.94
2022-11-06T04:59:11.869Z,1011.86
2022-11-06T05:00:11.866Z,1011.83
2022-11-06T05:01:11.934Z,1011.84
2022-11-06T05:02:11.936Z,1011.85
2022-11-06T05:03:11.829Z,1011.86
2022-11-06T05:04:11.850Z,1011.80
2022-11-06T05:05:11.807Z,1011.83
2022-11-06T05:06:11.800Z,1011.74
2022-11-06T05:07:11.874Z,1011.72
2022-11-06T05:08:12.230Z,1011.75
2022-11-06T05:09:11.771Z,1011.74
2022-11-06T05:10:11.759Z,1011.69
2022-11-06T05:11:11.758Z,1011.76
2022-11-06T05:12:11.756Z,1011.77
2022-11-06T05:13:11.891Z,1011.84
2022-11-06T05:14:11.720Z,1011.79
2022-11-06T05:15:11.702Z,1011.81
2022-11-06T05:16:11.691Z,1011.80
2022-11-06T05:17:11.689Z,1011.77
2022-11-06T05:18:12.010Z,1011.82
2022-11-06T05:19:11.846Z,1011.78
2022-11-06T05:20:11.674Z,1011.77
2022-11-06T05:21:11.652Z,1011.78
2022-11-06T05:22:11.902Z,1011.77
2022-11-06T05:23:11.602Z,1011.83
2022-11-06T05:24:11.597Z,1011.86
2022-11-06T05:25:11.593Z,1011.87
2022-11-06T05:26:11.593Z,1011.87
2022-11-06T05:27:11.580Z,1011.82
2022-11-06T05:28:11.990Z,1011.82
2022-11-06T05:29:11.540Z,1011.85
2022-11-06T05:30:11.537Z,1011.87
2022-11-06T05:31:11.541Z,1011.80
2022-11-06T05:32:11.512Z,1011.83
2022-11-06T05:33:11.495Z,1011.80
2022-11-06T05:34:11.532Z,1011.77
2022-11-06T05:35:11.492Z,1011.77
2022-11-06T05:36:11.484Z,1011.76
2022-11-06T05:37:11.478Z,1011.78
2022-11-06T05:38:11.866Z,1011.71
2022-11-06T05:39:11.449Z,1011.74
2022-11-06T05:40:11.426Z,1011.72
2022-11-06T05:41:11.419Z,1011.70
2022-11-06T05:42:11.450Z,1011.68
2022-11-06T05:43:11.395Z,1011.70
2022-11-06T05:44:11.406Z,1011.71
2022-11-06T05:45:11.376Z,1011.72
2022-11-06T05:46:29.639Z,1011.73
2022-11-06T05:47:12.373Z,1011.76
2022-11-06T05:48:11.724Z,1011.75
2022-11-06T05:49:11.345Z,1011.77
2022-11-06T05:50:11.328Z,1011.78
2022-11-06T05:51:11.316Z,1011.79
2022-11-06T05:52:11.316Z,1011.82
2022-11-06T05:53:11.311Z,1011.84
2022-11-06T05:54:11.291Z,1011.82
2022-11-06T05:55:14.804Z,1011.85
2022-11-06T05:56:11.257Z,1011.81
2022-11-06T05:57:11.254Z,1011.82
2022-11-06T05:58:11.625Z,1011.84
2022-11-06T05:59:11.225Z,1011.79
2022-11-06T06:00:11.235Z,1011.82
2022-11-06T06:01:11.215Z,1011.80
2022-11-06T06:02:11.323Z,1011.80
2022-11-06T06:03:11.244Z,1011.79
2022-11-06T06:04:11.164Z,1011.81
2022-11-06T06:05:11.162Z,1011.79
2022-11-06T06:06:11.143Z,1011.77
2022-11-06T06:07:11.156Z,1011.77
2022-11-06T06:08:11.426Z,1011.82
2022-11-06T06:09:11.134Z,1011.80
2022-11-06T06:10:11.107Z,1011.83
2022-11-06T06:11:11.114Z,1011.80
2022-11-06T06:12:11.087Z,1011.79
2022-11-06T06:13:11.082Z,1011.78
2022-11-06T06:14:11.067Z,1011.83
2022-11-06T06:15:11.058Z,1011.76
2022-11-06T06:16:11.142Z,1011.81
2022-11-06T06:17:11.047Z,1011.81
2022-11-06T06:18:11.395Z,1011.80
2022-11-06T06:19:11.005Z,1011.82
2022-11-06T06:20:10.994Z,1011.79
2022-11-06T06:21:10.991Z,1011.86
2022-11-06T06:22:10.969Z,1011.84
2022-11-06T06:23:10.967Z,1011.86
2022-11-06T06:24:11.030Z,1011.84
2022-11-06T06:25:21.394Z,1011.84
2022-11-06T06:26:11.951Z,1011.87
2022-11-06T06:27:10.927Z,1011.90
2022-11-06T06:28:11.202Z,1011.85
2022-11-06T06:29:10.901Z,1011.87
2022-11-06T06:30:10.888Z,1011.86
2022-11-06T06:31:10.906Z,1011.91
2022-11-06T06:32:11.006Z,1011.89
2022-11-06T06:33:10.853Z,1011.91
2022-11-06T06:34:10.850Z,1011.93
2022-11-06T06:35:10.845Z,1012.01
2022-11-06T06:36:10.846Z,1011.99
2022-11-06T06:37:10.815Z,1012.00
2022-11-06T06:38:11.119Z,1011.99
2022-11-06T06:39:10.796Z,1011.97
2022-11-06T06:40:10.787Z,1011.95
2022-11-06T06:41:10.767Z,1011.96
2022-11-06T06:42:10.757Z,1012.02
2022-11-06T06:43:10.753Z,1011.97
2022-11-06T06:44:10.748Z,1011.99
2022-11-06T06:45:10.725Z,1012.02
2022-11-06T06:46:10.719Z,1012.00
2022-11-06T06:47:10.724Z,1012.01
2022-11-06T06:48:11.123Z,1012.04
2022-11-06T06:49:10.685Z,1012.02
2022-11-06T06:50:10.679Z,1012.02
2022-11-06T06:51:10.660Z,1012.00
2022-11-06T06:52:10.648Z,1012.02
2022-11-06T06:53:10.645Z,1012.01
2022-11-06T06:54:10.633Z,1012.02
2022-11-06T06:55:10.620Z,1011.98
2022-11-06T06:56:10.606Z,1011.98
2022-11-06T06:57:10.601Z,1011.95
2022-11-06T06:58:16.563Z,1012.01
2022-11-06T06:59:11.605Z,1011.98
2022-11-06T07:00:10.565Z,1011.99
2022-11-06T07:01:10.687Z,1011.98
2022-11-06T07:02:10.626Z,1012.01
2022-11-06T07:03:10.549Z,1012.01
2022-11-06T07:04:10.630Z,1012.09
2022-11-06T07:05:10.519Z,1012.07
2022-11-06T07:06:10.499Z,1012.04
2022-11-06T07:07:10.489Z,1012.08
2022-11-06T07:08:10.717Z,1012.09
2022-11-06T07:09:10.493Z,1012.11
2022-11-06T07:10:10.458Z,1012.07
2022-11-06T07:11:10.454Z,1012.08
2022-11-06T07:12:10.432Z,1012.16
2022-11-06T07:13:10.769Z,1012.05
2022-11-06T07:14:10.413Z,1012.01
2022-11-06T07:15:10.427Z,1012.04
2022-11-06T07:16:10.392Z,1012.03
2022-11-06T07:17:10.377Z,1012.06
2022-11-06T07:18:10.488Z,1012.04
2022-11-06T07:19:10.365Z,1012.11
2022-11-06T07:20:10.393Z,1012.13
2022-11-06T07:21:10.344Z,1012.07
2022-11-06T07:22:10.331Z,1012.10
2022-11-06T07:23:10.316Z,1012.11
2022-11-06T07:24:10.330Z,1012.08
2022-11-06T07:25:10.300Z,1012.06
2022-11-06T07:26:10.301Z,1012.09
2022-11-06T07:27:10.281Z,1012.07
2022-11-06T07:28:10.265Z,1012.01
2022-11-06T07:29:10.249Z,1012.01
2022-11-06T07:30:10.245Z,1012.04
2022-11-06T07:31:10.240Z,1012.03
2022-11-06T07:32:10.219Z,1012.00
2022-11-06T07:33:10.208Z,1011.98
2022-11-06T07:34:10.194Z,1012.00
2022-11-06T07:35:10.191Z,1012.08
2022-11-06T07:36:10.200Z,1012.02
2022-11-06T07:37:10.181Z,1012.04
2022-11-06T07:38:10.315Z,1012.01
2022-11-06T07:39:10.155Z,1011.99
2022-11-06T07:40:10.126Z,1011.97
2022-11-06T07:41:10.120Z,1012.08
2022-11-06T07:42:10.166Z,1012.02
2022-11-06T07:43:10.108Z,1012.00
2022-11-06T07:44:10.084Z,1012.02
2022-11-06T07:45:10.076Z,1012.01
2022-11-06T07:46:10.068Z,1011.98
2022-11-06T07:47:10.048Z,1011.99
2022-11-06T07:48:10.049Z,1011.96
2022-11-06T07:49:10.032Z,1011.95
2022-11-06T07:50:10.014Z,1011.94
2022-11-06T07:51:10.039Z,1011.92
2022-11-06T07:52:10.044Z,1011.97
2022-11-06T07:53:10.140Z,1011.93
2022-11-06T07:54:09.972Z,1011.90
2022-11-06T07:55:09.969Z,1011.98
2022-11-06T07:56:09.955Z,1011.94
2022-11-06T07:57:09.957Z,1011.98
2022-11-06T07:58:09.930Z,1011.95
2022-11-06T07:59:09.968Z,1011.99
2022-11-06T08:00:09.914Z,1011.94
2022-11-06T08:01:14.098Z,1011.98
2022-11-06T08:02:10.986Z,1011.90
2022-11-06T08:03:09.881Z,1011.85
2022-11-06T08:04:09.872Z,1011.91
2022-11-06T08:05:09.865Z,1011.93
2022-11-06T08:06:09.844Z,1011.91
2022-11-06T08:07:09.830Z,1011.90
2022-11-06T08:08:09.845Z,1011.90
2022-11-06T08:09:09.807Z,1011.95
2022-11-06T08:10:09.819Z,1011.96
2022-11-06T08:11:09.784Z,1012.02
2022-11-06T08:12:09.774Z,1011.99
2022-11-06T08:13:09.767Z,1011.90
2022-11-06T08:14:09.752Z,1011.96
2022-11-06T08:15:09.757Z,1012.01
2022-11-06T08:16:09.731Z,1011.93
2022-11-06T08:17:09.717Z,1011.93
2022-11-06T08:18:09.723Z,1011.87
2022-11-06T08:19:09.711Z,1011.85
2022-11-06T08:20:09.698Z,1011.81
2022-11-06T08:21:09.683Z,1011.81
2022-11-06T08:22:09.662Z,1011.77
2022-11-06T08:23:09.651Z,1011.78
2022-11-06T08:24:09.744Z,1011.80
2022-11-06T08:25:09.645Z,1011.76
2022-11-06T08:26:09.689Z,1011.77
2022-11-06T08:27:09.616Z,1011.76
2022-11-06T08:28:09.603Z,1011.79
2022-11-06T08:29:09.594Z,1011.90
2022-11-06T08:30:09.594Z,1011.74
2022-11-06T08:31:09.589Z,1011.92
2022-11-06T08:32:09.564Z,1011.85
2022-11-06T08:33:09.573Z,1011.84
2022-11-06T08:34:09.536Z,1011.84
2022-11-06T08:35:09.533Z,1011.87
2022-11-06T08:36:09.519Z,1011.86
2022-11-06T08:37:09.515Z,1011.85
2022-11-06T08:38:09.486Z,1011.79
2022-11-06T08:39:09.488Z,1011.77
2022-11-06T08:40:09.489Z,1011.85
2022-11-06T08:41:09.464Z,1011.74
2022-11-06T08:42:09.468Z,1011.69
2022-11-06T08:43:09.441Z,1011.68
2022-11-06T08:44:09.428Z,1011.65
2022-11-06T08:45:09.419Z,1011.62
2022-11-06T08:46:09.407Z,1011.69
2022-11-06T08:47:09.412Z,1011.64
2022-11-06T08:48:09.391Z,1011.63
2022-11-06T08:49:09.375Z,1011.60
2022-11-06T08:50:09.411Z,1011.58
2022-11-06T08:51:09.352Z,1011.63
2022-11-06T08:52:09.335Z,1011.53
2022-11-06T08:53:09.377Z,1011.51
2022-11-06T08:54:09.351Z,1011.48
2022-11-06T08:55:09.306Z,1011.45
2022-11-06T08:56:09.352Z,1011.47
2022-11-06T08:57:09.288Z,1011.49
2022-11-06T08:58:09.281Z,1011.49
2022-11-06T08:59:09.263Z,1011.52
2022-11-06T09:00:09.258Z,1011.55
2022-11-06T09:01:09.307Z,1011.52
2022-11-06T09:02:09.312Z,1011.56
2022-11-06T09:03:09.238Z,1011.58
2022-11-06T09:04:09.241Z,1011.60
2022-11-06T09:05:09.221Z,1011.52
2022-11-06T09:06:09.199Z,1011.63
2022-11-06T09:07:09.213Z,1011.65
2022-11-06T09:08:09.169Z,1011.63
2022-11-06T09:09:09.199Z,1011.61
2022-11-06T09:10:09.149Z,1011.59
2022-11-06T09:11:09.137Z,1011.56
2022-11-06T09:12:09.138Z,1011.50
2022-11-06T09:13:09.118Z,1011.57
2022-11-06T09:14:09.124Z,1011.52
2022-11-06T09:15:09.094Z,1011.47
2022-11-06T09:16:15.295Z,1011.50
2022-11-06T09:17:09.074Z,1011.51
2022-11-06T09:18:09.055Z,1011.56
2022-11-06T09:19:09.077Z,1011.51
2022-11-06T09:20:09.040Z,1011.54
2022-11-06T09:21:09.060Z,1011.48
2022-11-06T09:22:09.024Z,1011.54
2022-11-06T09:23:09.006Z,1011.57
2022-11-06T09:24:09.002Z,1011.52
2022-11-06T09:25:08.975Z,1011.62
2022-11-06T09:26:08.971Z,1011.51
2022-11-06T09:27:08.992Z,1011.71
2022-11-06T09:28:08.976Z,1011.60
2022-11-06T09:29:08.964Z,1011.70
2022-11-06T09:30:08.934Z,1011.68
2022-11-06T09:31:08.918Z,1011.67
2022-11-06T09:32:08.911Z,1011.61
2022-11-06T09:33:13.343Z,1011.63
2022-11-06T09:34:08.904Z,1011.49
2022-11-06T09:35:08.892Z,1011.50
2022-11-06T09:36:08.859Z,1011.52
2022-11-06T09:37:08.852Z,1011.56
2022-11-06T09:38:08.852Z,1011.66
2022-11-06T09:39:08.826Z,1011.61
2022-11-06T09:40:08.851Z,1011.56
2022-11-06T09:41:08.800Z,1011.59
2022-11-06T09:42:08.792Z,1011.56
2022-11-06T09:43:08.786Z,1011.53
2022-11-06T09:44:08.916Z,1011.53
2022-11-06T09:45:08.787Z,1011.56
2022-11-06T09:46:08.767Z,1011.53
2022-11-06T09:47:08.737Z,1011.64
2022-11-06T09:48:08.748Z,1011.53
2022-11-06T09:49:08.713Z,1011.62
2022-11-06T09:50:08.730Z,1011.55
2022-11-06T09:51:08.710Z,1011.53
2022-11-06T09:52:08.686Z,1011.51
2022-11-06T09:53:08.679Z,1011.51
2022-11-06T09:54:08.686Z,1011.48
2022-11-06T09:55:08.669Z,1011.52
2022-11-06T09:56:08.649Z,1011.57
2022-11-06T09:57:08.622Z,1011.59
2022-11-06T09:58:08.616Z,1011.60
2022-11-06T09:59:08.629Z,1011.63
2022-11-06T10:00:08.703Z,1011.68
2022-11-06T10:01:08.642Z,1011.56
2022-11-06T10:02:08.770Z,1011.54
2022-11-06T10:03:08.571Z,1011.49
2022-11-06T10:04:08.548Z,1011.56
2022-11-06T10:05:08.546Z,1011.47
2022-11-06T10:06:08.544Z,1011.48
2022-11-06T10:07:08.534Z,1011.47
2022-11-06T10:08:08.507Z,1011.49
2022-11-06T10:09:08.503Z,1011.49
2022-11-06T10:10:08.483Z,1011.53
2022-11-06T10:11:08.470Z,1011.52
2022-11-06T10:12:08.487Z,1011.50
2022-11-06T10:13:08.455Z,1011.48
2022-11-06T10:14:08.460Z,1011.48
2022-11-06T10:15:08.443Z,1011.40
2022-11-06T10:16:08.451Z,1011.47
2022-11-06T10:17:08.408Z,1011.41
2022-11-06T10:18:08.452Z,1011.43
2022-11-06T10:19:08.398Z,1011.42
2022-11-06T10:20:08.383Z,1011.39
2022-11-06T10:21:08.373Z,1011.35
2022-11-06T10:22:08.369Z,1011.40
2022-11-06T10:23:08.362Z,1011.33
2022-11-06T10:24:08.333Z,1011.39
2022-11-06T10:25:08.322Z,1011.31
2022-11-06T10:26:08.320Z,1011.30
2022-11-06T10:27:08.296Z,1011.27
2022-11-06T10:28:08.299Z,1011.29
2022-11-06T10:29:08.287Z,1011.26
2022-11-06T10:30:08.277Z,1011.17
2022-11-06T10:31:08.263Z,1011.21
2022-11-06T10:32:08.256Z,1011.14
2022-11-06T10:33:08.237Z,1011.15
2022-11-06T10:34:08.300Z,1011.18
2022-11-06T10:35:08.204Z,1011.19
2022-11-06T10:36:08.201Z,1011.23
2022-11-06T10:37:08.200Z,1011.15
2022-11-06T10:38:08.177Z,1011.14
2022-11-06T10:39:08.172Z,1011.10
2022-11-06T10:40:08.175Z,1011.19
2022-11-06T10:41:08.147Z,1011.12
2022-11-06T10:42:08.141Z,1011.08
2022-11-06T10:43:08.134Z,1011.03
2022-11-06T10:44:08.146Z,1011.05
2022-11-06T10:45:08.105Z,1011.00
2022-11-06T10:46:08.091Z,1011.07
2022-11-06T10:47:08.085Z,1011.10
2022-11-06T10:48:08.183Z,1011.04
2022-11-06T10:49:08.099Z,1010.98
2022-11-06T10:50:08.094Z,1010.96
2022-11-06T10:51:08.058Z,1010.92
2022-11-06T10:52:08.072Z,1010.88
2022-11-06T10:53:08.036Z,1010.93
2022-11-06T10:54:08.036Z,1010.91
2022-11-06T10:55:08.004Z,1011.00
2022-11-06T10:56:11.037Z,1010.88
2022-11-06T10:57:07.969Z,1010.98
2022-11-06T10:58:07.963Z,1010.84
2022-11-06T10:59:07.947Z,1010.76
2022-11-06T11:00:07.964Z,1010.77
2022-11-06T11:01:07.994Z,1010.77
2022-11-06T11:02:08.085Z,1010.79
2022-11-06T11:03:07.908Z,1010.77
2022-11-06T11:04:07.912Z,1010.74
2022-11-06T11:05:07.904Z,1010.80
2022-11-06T11:06:07.879Z,1010.80
2022-11-06T11:07:07.865Z,1010.71
2022-11-06T11:08:07.858Z,1010.73
2022-11-06T11:09:07.842Z,1010.72
2022-11-06T11:10:07.826Z,1010.67
2022-11-06T11:11:07.822Z,1010.75
2022-11-06T11:12:07.818Z,1010.76
2022-11-06T11:13:09.018Z,1010.66
2022-11-06T11:14:07.789Z,1010.60
2022-11-06T11:15:07.767Z,1010.63
2022-11-06T11:16:07.777Z,1010.67
2022-11-06T11:17:07.756Z,1010.56
2022-11-06T11:18:07.769Z,1010.64
2022-11-06T11:19:07.725Z,1010.53
2022-11-06T11:20:07.736Z,1010.58
2022-11-06T11:21:07.713Z,1010.54
2022-11-06T11:22:07.752Z,1010.58
2022-11-06T11:23:07.769Z,1010.63
2022-11-06T11:24:07.681Z,1010.59
2022-11-06T11:25:07.663Z,1010.59
2022-11-06T11:26:07.655Z,1010.53
2022-11-06T11:27:07.648Z,1010.55
2022-11-06T11:28:07.636Z,1010.59
2022-11-06T11:29:07.648Z,1010.58
2022-11-06T11:30:07.630Z,1010.57
2022-11-06T11:31:07.601Z,1010.52
2022-11-06T11:32:07.588Z,1010.63
2022-11-06T11:33:07.593Z,1010.58
2022-11-06T11:34:07.567Z,1010.61
2022-11-06T11:35:07.575Z,1010.54
2022-11-06T11:36:07.557Z,1010.50
2022-11-06T11:37:07.539Z,1010.52
2022-11-06T11:38:07.520Z,1010.51
2022-11-06T11:39:07.517Z,1010.47
2022-11-06T11:40:12.535Z,1010.50
2022-11-06T11:41:07.499Z,1010.45
2022-11-06T11:42:07.468Z,1010.53
2022-11-06T11:43:07.508Z,1010.52
2022-11-06T11:44:07.449Z,1010.47
2022-11-06T11:45:07.450Z,1010.40
2022-11-06T11:46:07.456Z,1010.40
2022-11-06T11:47:09.281Z,1010.45
2022-11-06T11:48:07.412Z,1010.57
2022-11-06T11:49:07.421Z,1010.40
2022-11-06T11:50:07.383Z,1010.39
2022-11-06T11:51:07.485Z,1010.34
2022-11-06T11:52:07.389Z,1010.38
2022-11-06T11:53:10.472Z,1010.42
2022-11-06T11:54:07.340Z,1010.41
2022-11-06T11:55:07.334Z,1010.33
2022-11-06T11:56:07.333Z,1010.36
2022-11-06T11:57:07.763Z,1010.34
2022-11-06T11:58:07.300Z,1010.26
2022-11-06T11:59:07.287Z,1010.25
2022-11-06T12:00:07.303Z,1010.26
2022-11-06T12:01:07.281Z,1010.27
2022-11-06T12:02:07.403Z,1010.23
2022-11-06T12:03:07.309Z,1010.25
2022-11-06T12:04:07.241Z,1010.17
2022-11-06T12:05:07.227Z,1010.28